Time;durP1;ratioP1;P1;durP2;ratioP2;P2;SDS_P1;SDS_P2;PMS_P1;PMS_P2;Temp;Humidity;BMP_temperature;BMP_pressure;BME280_temperature;BME280_humidity;BME280_pressure;Samples;Min_cycle;Max_cycle;Signal;HPM_P1;HPM_P2
2021/10/25 00:00:47;;;;;;;11.57;5.00;;;;;;;;;;6228112;23;20170;-91
2021/10/25 00:03:53;;;;;;;9.30;4.53;;;;;;;;;;6227042;23;20234;-90
2021/10/25 00:10:57;;;;;;;11.53;5.23;;;;;;;;;;6229308;23;20195;-90
2021/10/25 00:14:05;;;;;;;14.70;4.90;;;;;;;;;;6228062;23;20171;-90
2021/10/25 00:17:12;;;;;;;13.97;5.47;;;;;;;;;;6228051;23;20234;-92
2021/10/25 00:20:19;;;;;;;15.13;5.50;;;;;;;;;;6230529;23;20167;-92
2021/10/25 00:23:28;;;;;;;12.17;5.40;;;;;;;;;;6230851;23;20235;-91
2021/10/25 00:26:36;;;;;;;15.17;5.17;;;;;;;;;;6232110;23;20176;-92
2021/10/25 00:29:44;;;;;;;11.77;4.60;;;;;;;;;;6225944;23;20537;-91
2021/10/25 00:32:52;;;;;;;14.17;5.23;;;;;;;;;;6225980;23;20215;-91
2021/10/25 00:36:00;;;;;;;12.00;5.13;;;;;;;;;;6228191;23;20163;-92
2021/10/25 00:39:07;;;;;;;10.97;4.87;;;;;;;;;;6228970;23;20218;-91
2021/10/25 00:42:17;;;;;;;12.30;4.97;;;;;;;;;;6230263;23;20179;-91
2021/10/25 00:45:23;;;;;;;12.97;4.57;;;;;;;;;;6229448;23;20224;-92
2021/10/25 00:48:31;;;;;;;13.97;4.57;;;;;;;;;;6230099;23;20191;-92
2021/10/25 00:51:41;;;;;;;12.73;5.57;;;;;;;;;;6233673;23;20192;-92
2021/10/25 00:54:49;;;;;;;15.70;5.33;;;;;;;;;;6232806;23;20861;-91
2021/10/25 00:57:57;;;;;;;89.33;30.23;;;;;;;;;;6231642;23;20176;-92
2021/10/25 01:01:02;;;;;;;12.07;5.13;;;;;;;;;;6231002;23;20159;-92
2021/10/25 01:04:09;;;;;;;29.77;12.97;;;;;;;;;;6230250;23;20214;-91
2021/10/25 01:07:15;;;;;;;45.77;17.83;;;;;;;;;;6230734;23;20167;-91
2021/10/25 01:10:21;;;;;;;23.10;7.33;;;;;;;;;;6231526;23;20255;-92
2021/10/25 01:13:32;;;;;;;12.00;5.27;;;;;;;;;;6231736;23;20180;-92
2021/10/25 01:20:59;;;;;;;9.07;4.57;;;;;;;;;;6232108;23;20179;-90
2021/10/25 01:24:05;;;;;;;15.27;5.73;;;;;;;;;;6232973;23;20159;-91
2021/10/25 01:27:11;;;;;;;9.50;4.83;;;;;;;;;;6232177;23;20163;-91
2021/10/25 01:30:17;;;;;;;14.47;4.83;;;;;;;;;;6226278;23;20171;-91
2021/10/25 01:33:23;;;;;;;8.97;5.17;;;;;;;;;;6225525;23;20618;-91
2021/10/25 01:36:33;;;;;;;10.20;5.03;;;;;;;;;;6225598;23;20232;-90
2021/10/25 01:39:39;;;;;;;9.00;4.77;;;;;;;;;;6225787;23;20170;-90
2021/10/25 01:42:45;;;;;;;10.03;5.00;;;;;;;;;;6224784;23;20170;-92
2021/10/25 01:45:50;;;;;;;11.47;4.83;;;;;;;;;;6225176;23;20214;-92
2021/10/25 01:48:55;;;;;;;10.03;4.43;;;;;;;;;;6224879;23;20646;-92
2021/10/25 01:52:02;;;;;;;12.23;5.17;;;;;;;;;;6224140;23;20291;-90
2021/10/25 01:55:07;;;;;;;11.87;5.33;;;;;;;;;;6224876;23;20175;-91
2021/10/25 01:58:14;;;;;;;16.43;5.50;;;;;;;;;;6224620;23;20170;-90
2021/10/25 02:01:21;;;;;;;13.73;5.10;;;;;;;;;;6224735;23;20359;-91
2021/10/25 02:04:29;;;;;;;61.37;6.43;;;;;;;;;;6224846;23;20191;-90
2021/10/25 02:07:35;;;;;;;14.50;5.30;;;;;;;;;;6226003;23;20496;-90
2021/10/25 02:10:42;;;;;;;9.77;4.90;;;;;;;;;;6224624;23;20581;-90
2021/10/25 02:13:47;;;;;;;20.77;5.20;;;;;;;;;;6222931;23;20239;-90
2021/10/25 02:16:58;;;;;;;26.53;5.17;;;;;;;;;;6225343;23;20171;-90
2021/10/25 02:20:09;;;;;;;11.37;4.53;;;;;;;;;;6224679;23;20166;-91
2021/10/25 02:23:17;;;;;;;23.87;5.30;;;;;;;;;;6224508;23;20244;-90
2021/10/25 02:26:25;;;;;;;22.17;5.20;;;;;;;;;;6224573;23;20194;-91
2021/10/25 02:29:35;;;;;;;29.17;5.17;;;;;;;;;;6224009;23;20191;-90
2021/10/25 02:32:43;;;;;;;17.27;4.87;;;;;;;;;;6223965;23;20271;-92
2021/10/25 02:36:01;;;;;;;35.73;5.20;;;;;;;;;;6229275;23;20167;-93
2021/10/25 02:39:17;;;;;;;25.10;5.40;;;;;;;;;;6228115;23;20253;-90
2021/10/25 02:42:26;;;;;;;15.63;5.43;;;;;;;;;;6227459;23;20237;-92
2021/10/25 02:45:34;;;;;;;16.83;4.70;;;;;;;;;;6231161;23;20187;-90
2021/10/25 02:48:43;;;;;;;9.17;4.73;;;;;;;;;;6231187;23;20190;-91
2021/10/25 02:55:25;;;;;;;12.37;5.30;;;;;;;;;;6229662;23;20597;-92
2021/10/25 03:10:39;;;;;;;10.30;4.67;;;;;;;;;;6231785;23;20174;-91
2021/10/25 03:13:46;;;;;;;24.63;5.23;;;;;;;;;;6230857;23;20210;-91
2021/10/25 03:17:19;;;;;;;48.77;6.57;;;;;;;;;;6230852;23;20167;-90
2021/10/25 03:20:46;;;;;;;21.03;5.30;;;;;;;;;;6229712;23;20164;-91
2021/10/25 03:44:37;;;;;;;13.17;4.90;;;;;;;;;;6215779;22;20207;-92
2021/10/25 03:47:47;;;;;;;12.40;4.90;;;;;;;;;;6234193;23;20220;-91
2021/10/25 03:50:58;;;;;;;13.57;5.20;;;;;;;;;;6235795;23;20241;-90
2021/10/25 03:54:34;;;;;;;8.90;4.60;;;;;;;;;;6240567;23;20175;-92
2021/10/25 21:23:16;;;;;;;30.40;14.33;;;;;;;;;;6152140;23;20173;-91
2021/10/25 21:26:21;;;;;;;33.40;14.47;;;;;;;;;;6150360;23;20242;-90
2021/10/25 21:29:27;;;;;;;29.53;14.03;;;;;;;;;;6174369;23;20240;-91
2021/10/25 21:32:33;;;;;;;27.30;13.13;;;;;;;;;;6178316;23;20221;-91
2021/10/25 21:35:46;;;;;;;31.70;13.37;;;;;;;;;;6158494;23;20156;-90
2021/10/25 21:38:55;;;;;;;28.07;13.63;;;;;;;;;;6161392;23;20172;-89
2021/10/25 22:11:23;;;;;;;27.77;12.83;;;;;;;;;;6161892;22;20203;-89
2021/10/25 22:14:29;;;;;;;28.00;13.30;;;;;;;;;;6213337;23;20515;-90
2021/10/25 22:17:37;;;;;;;30.50;13.00;;;;;;;;;;6212168;23;20672;-88
2021/10/25 22:20:44;;;;;;;30.30;12.73;;;;;;;;;;6214601;23;20171;-90
2021/10/25 22:23:49;;;;;;;27.10;12.20;;;;;;;;;;6212301;23;20167;-90
2021/10/25 22:26:55;;;;;;;37.83;13.20;;;;;;;;;;6213833;23;20203;-89
2021/10/25 22:30:02;;;;;;;31.57;13.00;;;;;;;;;;6213267;23;20194;-88
2021/10/25 22:33:08;;;;;;;34.17;14.07;;;;;;;;;;6212806;23;20167;-91
2021/10/25 22:36:13;;;;;;;33.03;14.50;;;;;;;;;;6211211;23;20247;-89
2021/10/25 22:39:21;;;;;;;33.60;14.37;;;;;;;;;;6212394;23;20163;-90
2021/10/25 22:42:29;;;;;;;35.83;14.47;;;;;;;;;;6214012;23;20170;-88
2021/10/25 22:45:34;;;;;;;37.33;15.30;;;;;;;;;;6213639;23;20182;-89
2021/10/25 23:12:09;;;;;;;38.57;14.87;;;;;;;;;;6167151;23;20232;-91
2021/10/25 23:15:16;;;;;;;41.47;14.77;;;;;;;;;;6182801;23;20168;-88
2021/10/25 23:18:21;;;;;;;41.27;14.77;;;;;;;;;;6182594;23;20170;-91
2021/10/25 23:21:27;;;;;;;37.40;14.87;;;;;;;;;;6182731;23;20175;-90
2021/10/25 23:24:32;;;;;;;34.27;14.07;;;;;;;;;;6182090;23;20179;-90
2021/10/25 23:27:39;;;;;;;28.97;14.20;;;;;;;;;;6183974;23;20626;-89
2021/10/25 23:30:48;;;;;;;26.50;13.50;;;;;;;;;;6182462;23;20306;-90
2021/10/25 23:33:54;;;;;;;30.63;13.67;;;;;;;;;;6184141;23;20229;-90
2021/10/25 23:36:59;;;;;;;42.83;15.23;;;;;;;;;;6182230;23;20172;-90
2021/10/25 23:40:06;;;;;;;40.07;15.03;;;;;;;;;;6182210;23;20287;-89
2021/10/25 23:43:13;;;;;;;34.60;14.93;;;;;;;;;;6183835;23;20619;-89
2021/10/25 23:46:19;;;;;;;49.50;14.97;;;;;;;;;;6184914;23;20171;-89
2021/10/25 23:49:24;;;;;;;50.83;15.87;;;;;;;;;;6183116;23;20657;-90
2021/10/25 23:52:30;;;;;;;64.90;16.03;;;;;;;;;;6183140;23;20251;-90
2021/10/25 23:55:36;;;;;;;40.90;15.83;;;;;;;;;;6182331;23;20152;-89
2021/10/25 23:58:43;;;;;;;34.63;15.07;;;;;;;;;;6182812;23;20172;-91
